sensor_id;sensor_type;location;lat;lon;timestamp;P1;durP1;ratioP1;P2;durP2;ratioP2
11425;SDS011;5769;47.998;7.788;2023-07-29T00:00:59;322.77;;;54.22;;
11425;SDS011;5769;47.998;7.788;2023-07-29T00:03:26;322.17;;;54.95;;
11425;SDS011;5769;47.998;7.788;2023-07-29T00:05:54;321.08;;;54.08;;
11425;SDS011;5769;47.998;7.788;2023-07-29T00:08:21;321.83;;;54.60;;
11425;SDS011;5769;47.998;7.788;2023-07-29T00:10:48;320.85;;;54.60;;
11425;SDS011;5769;47.998;7.788;2023-07-29T00:13:16;320.65;;;54.40;;
11425;SDS011;5769;47.998;7.788;2023-07-29T00:15:43;321.70;;;54.03;;
11425;SDS011;5769;47.998;7.788;2023-07-29T00:18:10;320.98;;;54.00;;
11425;SDS011;5769;47.998;7.788;2023-07-29T00:20:36;321.60;;;53.45;;
11425;SDS011;5769;47.998;7.788;2023-07-29T00:23:03;323.23;;;54.42;;
11425;SDS011;5769;47.998;7.788;2023-07-29T00:25:30;320.40;;;53.58;;
11425;SDS011;5769;47.998;7.788;2023-07-29T00:27:57;319.55;;;53.60;;
11425;SDS011;5769;47.998;7.788;2023-07-29T00:30:26;322.05;;;54.38;;
11425;SDS011;5769;47.998;7.788;2023-07-29T00:32:52;320.33;;;53.90;;
11425;SDS011;5769;47.998;7.788;2023-07-29T00:35:19;320.98;;;53.63;;
11425;SDS011;5769;47.998;7.788;2023-07-29T00:37:46;321.40;;;54.20;;
11425;SDS011;5769;47.998;7.788;2023-07-29T00:40:14;319.92;;;54.13;;
11425;SDS011;5769;47.998;7.788;2023-07-29T00:42:42;321.55;;;54.28;;
11425;SDS011;5769;47.998;7.788;2023-07-29T00:45:09;321.13;;;54.33;;
11425;SDS011;5769;47.998;7.788;2023-07-29T00:47:37;321.42;;;54.47;;
11425;SDS011;5769;47.998;7.788;2023-07-29T00:50:05;322.42;;;54.53;;
11425;SDS011;5769;47.998;7.788;2023-07-29T00:52:33;321.83;;;54.53;;
11425;SDS011;5769;47.998;7.788;2023-07-29T00:55:00;321.60;;;54.08;;
11425;SDS011;5769;47.998;7.788;2023-07-29T00:57:26;322.73;;;54.28;;
11425;SDS011;5769;47.998;7.788;2023-07-29T00:59:55;321.65;;;54.08;;
11425;SDS011;5769;47.998;7.788;2023-07-29T01:02:22;321.15;;;53.50;;
11425;SDS011;5769;47.998;7.788;2023-07-29T01:04:52;322.15;;;54.30;;
11425;SDS011;5769;47.998;7.788;2023-07-29T01:07:21;322.15;;;54.75;;
11425;SDS011;5769;47.998;7.788;2023-07-29T01:09:57;321.77;;;54.67;;
11425;SDS011;5769;47.998;7.788;2023-07-29T01:12:28;321.45;;;54.53;;
11425;SDS011;5769;47.998;7.788;2023-07-29T01:15:04;321.35;;;54.30;;
11425;SDS011;5769;47.998;7.788;2023-07-29T01:17:39;322.52;;;53.97;;
11425;SDS011;5769;47.998;7.788;2023-07-29T01:20:11;320.92;;;53.47;;
11425;SDS011;5769;47.998;7.788;2023-07-29T01:22:40;322.65;;;53.58;;
11425;SDS011;5769;47.998;7.788;2023-07-29T01:25:09;320.80;;;53.95;;
11425;SDS011;5769;47.998;7.788;2023-07-29T01:27:36;321.20;;;54.13;;
11425;SDS011;5769;47.998;7.788;2023-07-29T01:30:02;321.17;;;54.05;;
11425;SDS011;5769;47.998;7.788;2023-07-29T01:32:33;322.50;;;54.53;;
11425;SDS011;5769;47.998;7.788;2023-07-29T01:35:07;323.83;;;55.17;;
11425;SDS011;5769;47.998;7.788;2023-07-29T01:37:41;322.63;;;55.22;;
11425;SDS011;5769;47.998;7.788;2023-07-29T01:40:11;322.52;;;54.38;;
11425;SDS011;5769;47.998;7.788;2023-07-29T01:42:39;320.45;;;53.90;;
11425;SDS011;5769;47.998;7.788;2023-07-29T01:45:06;322.35;;;54.78;;
11425;SDS011;5769;47.998;7.788;2023-07-29T01:47:32;323.60;;;54.85;;
11425;SDS011;5769;47.998;7.788;2023-07-29T01:49:59;321.38;;;55.15;;
11425;SDS011;5769;47.998;7.788;2023-07-29T01:52:26;322.80;;;54.70;;
11425;SDS011;5769;47.998;7.788;2023-07-29T01:54:52;322.13;;;55.47;;
11425;SDS011;5769;47.998;7.788;2023-07-29T01:57:20;320.05;;;54.03;;
11425;SDS011;5769;47.998;7.788;2023-07-29T01:59:47;321.95;;;55.03;;
11425;SDS011;5769;47.998;7.788;2023-07-29T02:02:14;321.58;;;54.60;;
11425;SDS011;5769;47.998;7.788;2023-07-29T02:04:40;322.48;;;55.05;;
11425;SDS011;5769;47.998;7.788;2023-07-29T02:07:07;323.60;;;54.75;;
11425;SDS011;5769;47.998;7.788;2023-07-29T02:09:34;323.77;;;55.50;;
11425;SDS011;5769;47.998;7.788;2023-07-29T02:12:01;322.27;;;54.28;;
11425;SDS011;5769;47.998;7.788;2023-07-29T02:14:29;322.95;;;54.65;;
11425;SDS011;5769;47.998;7.788;2023-07-29T02:16:55;322.10;;;54.63;;
11425;SDS011;5769;47.998;7.788;2023-07-29T02:19:22;323.25;;;54.83;;
11425;SDS011;5769;47.998;7.788;2023-07-29T02:21:49;323.17;;;54.75;;
11425;SDS011;5769;47.998;7.788;2023-07-29T02:24:15;322.90;;;55.63;;
11425;SDS011;5769;47.998;7.788;2023-07-29T02:26:42;323.50;;;55.13;;
11425;SDS011;5769;47.998;7.788;2023-07-29T02:29:09;321.92;;;54.42;;
11425;SDS011;5769;47.998;7.788;2023-07-29T02:31:37;321.35;;;53.95;;
11425;SDS011;5769;47.998;7.788;2023-07-29T02:34:03;322.33;;;54.97;;
11425;SDS011;5769;47.998;7.788;2023-07-29T02:36:30;322.42;;;54.45;;
11425;SDS011;5769;47.998;7.788;2023-07-29T02:38:57;321.08;;;54.80;;
11425;SDS011;5769;47.998;7.788;2023-07-29T02:41:23;322.83;;;55.20;;
11425;SDS011;5769;47.998;7.788;2023-07-29T02:43:50;322.83;;;54.65;;
11425;SDS011;5769;47.998;7.788;2023-07-29T02:46:17;321.77;;;53.75;;
11425;SDS011;5769;47.998;7.788;2023-07-29T02:48:45;322.00;;;54.15;;
11425;SDS011;5769;47.998;7.788;2023-07-29T02:51:12;320.48;;;55.15;;
11425;SDS011;5769;47.998;7.788;2023-07-29T02:53:38;322.77;;;54.13;;
11425;SDS011;5769;47.998;7.788;2023-07-29T02:56:05;321.30;;;55.03;;
11425;SDS011;5769;47.998;7.788;2023-07-29T02:58:34;320.83;;;54.22;;
11425;SDS011;5769;47.998;7.788;2023-07-29T03:01:01;321.80;;;55.38;;
11425;SDS011;5769;47.998;7.788;2023-07-29T03:03:28;322.55;;;55.25;;
11425;SDS011;5769;47.998;7.788;2023-07-29T03:06:00;322.98;;;54.95;;
11425;SDS011;5769;47.998;7.788;2023-07-29T03:08:27;320.48;;;54.40;;
11425;SDS011;5769;47.998;7.788;2023-07-29T03:10:54;323.95;;;55.50;;
11425;SDS011;5769;47.998;7.788;2023-07-29T03:13:22;323.17;;;55.05;;
11425;SDS011;5769;47.998;7.788;2023-07-29T03:15:48;323.30;;;54.33;;
11425;SDS011;5769;47.998;7.788;2023-07-29T03:18:15;322.70;;;54.92;;
11425;SDS011;5769;47.998;7.788;2023-07-29T03:20:42;322.35;;;54.72;;
11425;SDS011;5769;47.998;7.788;2023-07-29T03:23:10;322.98;;;54.55;;
11425;SDS011;5769;47.998;7.788;2023-07-29T03:25:36;321.25;;;54.28;;
11425;SDS011;5769;47.998;7.788;2023-07-29T03:28:03;321.60;;;54.65;;
11425;SDS011;5769;47.998;7.788;2023-07-29T03:30:30;322.65;;;55.10;;
11425;SDS011;5769;47.998;7.788;2023-07-29T03:32:56;321.70;;;55.00;;
11425;SDS011;5769;47.998;7.788;2023-07-29T03:35:23;323.60;;;54.65;;
11425;SDS011;5769;47.998;7.788;2023-07-29T03:37:50;321.10;;;54.40;;
11425;SDS011;5769;47.998;7.788;2023-07-29T03:40:18;323.35;;;55.28;;
11425;SDS011;5769;47.998;7.788;2023-07-29T03:42:44;321.63;;;54.25;;
11425;SDS011;5769;47.998;7.788;2023-07-29T03:45:11;322.42;;;54.35;;
11425;SDS011;5769;47.998;7.788;2023-07-29T03:47:38;322.20;;;54.55;;
11425;SDS011;5769;47.998;7.788;2023-07-29T03:50:05;322.65;;;54.78;;
11425;SDS011;5769;47.998;7.788;2023-07-29T03:52:32;322.23;;;54.83;;
11425;SDS011;5769;47.998;7.788;2023-07-29T03:54:59;322.10;;;55.70;;
11425;SDS011;5769;47.998;7.788;2023-07-29T03:57:27;322.35;;;54.85;;
11425;SDS011;5769;47.998;7.788;2023-07-29T03:59:54;321.88;;;54.30;;
11425;SDS011;5769;47.998;7.788;2023-07-29T04:02:21;322.45;;;54.30;;
11425;SDS011;5769;47.998;7.788;2023-07-29T04:04:48;322.67;;;54.17;;
11425;SDS011;5769;47.998;7.788;2023-07-29T04:07:14;322.00;;;54.42;;
11425;SDS011;5769;47.998;7.788;2023-07-29T04:09:41;321.60;;;54.42;;
11425;SDS011;5769;47.998;7.788;2023-07-29T04:12:08;323.45;;;54.67;;
11425;SDS011;5769;47.998;7.788;2023-07-29T04:14:37;320.60;;;54.15;;
11425;SDS011;5769;47.998;7.788;2023-07-29T04:17:04;321.50;;;55.15;;
11425;SDS011;5769;47.998;7.788;2023-07-29T04:19:31;321.33;;;54.42;;
11425;SDS011;5769;47.998;7.788;2023-07-29T04:21:57;320.67;;;53.80;;
11425;SDS011;5769;47.998;7.788;2023-07-29T04:24:24;321.98;;;54.67;;
11425;SDS011;5769;47.998;7.788;2023-07-29T04:26:51;321.25;;;54.33;;
11425;SDS011;5769;47.998;7.788;2023-07-29T04:29:17;321.63;;;54.45;;
11425;SDS011;5769;47.998;7.788;2023-07-29T04:31:45;322.60;;;54.67;;
11425;SDS011;5769;47.998;7.788;2023-07-29T04:34:12;321.02;;;55.13;;
11425;SDS011;5769;47.998;7.788;2023-07-29T04:36:39;323.42;;;55.25;;
11425;SDS011;5769;47.998;7.788;2023-07-29T04:39:05;322.85;;;55.20;;
11425;SDS011;5769;47.998;7.788;2023-07-29T04:41:32;322.63;;;55.50;;
11425;SDS011;5769;47.998;7.788;2023-07-29T04:43:59;322.30;;;54.53;;
11425;SDS011;5769;47.998;7.788;2023-07-29T04:46:26;323.42;;;55.30;;
11425;SDS011;5769;47.998;7.788;2023-07-29T04:48:54;324.90;;;55.45;;
11425;SDS011;5769;47.998;7.788;2023-07-29T04:51:20;324.75;;;55.58;;
11425;SDS011;5769;47.998;7.788;2023-07-29T04:53:47;326.60;;;57.22;;
11425;SDS011;5769;47.998;7.788;2023-07-29T04:56:14;323.95;;;56.25;;
11425;SDS011;5769;47.998;7.788;2023-07-29T04:58:40;322.60;;;55.10;;
11425;SDS011;5769;47.998;7.788;2023-07-29T05:01:07;323.38;;;55.05;;
11425;SDS011;5769;47.998;7.788;2023-07-29T05:03:34;323.17;;;55.90;;
11425;SDS011;5769;47.998;7.788;2023-07-29T05:06:03;324.77;;;56.05;;
11425;SDS011;5769;47.998;7.788;2023-07-29T05:08:30;325.02;;;55.63;;
11425;SDS011;5769;47.998;7.788;2023-07-29T05:10:56;326.42;;;56.20;;
11425;SDS011;5769;47.998;7.788;2023-07-29T05:13:23;326.00;;;56.35;;
11425;SDS011;5769;47.998;7.788;2023-07-29T05:15:50;324.67;;;55.90;;
11425;SDS011;5769;47.998;7.788;2023-07-29T05:18:17;325.85;;;55.80;;
11425;SDS011;5769;47.998;7.788;2023-07-29T05:20:44;325.27;;;55.83;;
11425;SDS011;5769;47.998;7.788;2023-07-29T05:23:12;326.27;;;56.15;;
11425;SDS011;5769;47.998;7.788;2023-07-29T05:25:39;326.50;;;56.42;;
11425;SDS011;5769;47.998;7.788;2023-07-29T05:28:05;325.23;;;55.80;;
11425;SDS011;5769;47.998;7.788;2023-07-29T05:30:32;326.10;;;56.03;;
11425;SDS011;5769;47.998;7.788;2023-07-29T05:33:02;325.65;;;55.72;;
11425;SDS011;5769;47.998;7.788;2023-07-29T05:35:29;327.02;;;56.17;;
11425;SDS011;5769;47.998;7.788;2023-07-29T05:37:55;325.92;;;56.05;;
11425;SDS011;5769;47.998;7.788;2023-07-29T05:40:24;325.85;;;55.90;;
11425;SDS011;5769;47.998;7.788;2023-07-29T05:42:50;324.85;;;56.47;;
11425;SDS011;5769;47.998;7.788;2023-07-29T05:45:17;326.30;;;56.60;;
11425;SDS011;5769;47.998;7.788;2023-07-29T05:47:44;325.13;;;56.08;;
11425;SDS011;5769;47.998;7.788;2023-07-29T05:50:10;325.73;;;55.60;;
11425;SDS011;5769;47.998;7.788;2023-07-29T05:52:37;324.50;;;55.05;;
11425;SDS011;5769;47.998;7.788;2023-07-29T05:55:04;324.10;;;55.08;;
11425;SDS011;5769;47.998;7.788;2023-07-29T05:57:32;325.27;;;56.10;;
11425;SDS011;5769;47.998;7.788;2023-07-29T05:59:59;325.10;;;55.75;;
11425;SDS011;5769;47.998;7.788;2023-07-29T06:02:26;325.35;;;56.05;;
11425;SDS011;5769;47.998;7.788;2023-07-29T06:04:52;325.05;;;55.85;;
11425;SDS011;5769;47.998;7.788;2023-07-29T06:07:19;327.25;;;55.67;;
11425;SDS011;5769;47.998;7.788;2023-07-29T06:09:46;324.20;;;55.47;;
11425;SDS011;5769;47.998;7.788;2023-07-29T06:12:13;325.00;;;55.30;;
11425;SDS011;5769;47.998;7.788;2023-07-29T06:14:41;325.83;;;55.35;;
11425;SDS011;5769;47.998;7.788;2023-07-29T06:17:07;324.77;;;55.47;;
11425;SDS011;5769;47.998;7.788;2023-07-29T06:19:36;324.90;;;55.72;;
11425;SDS011;5769;47.998;7.788;2023-07-29T06:22:03;325.58;;;55.97;;
11425;SDS011;5769;47.998;7.788;2023-07-29T06:24:31;326.92;;;55.70;;
11425;SDS011;5769;47.998;7.788;2023-07-29T06:26:58;325.65;;;54.78;;
11425;SDS011;5769;47.998;7.788;2023-07-29T06:29:24;325.00;;;56.00;;
11425;SDS011;5769;47.998;7.788;2023-07-29T06:31:52;326.00;;;56.25;;
11425;SDS011;5769;47.998;7.788;2023-07-29T06:34:19;326.73;;;56.42;;
11425;SDS011;5769;47.998;7.788;2023-07-29T06:36:47;325.95;;;55.80;;
11425;SDS011;5769;47.998;7.788;2023-07-29T06:39:14;325.58;;;55.83;;
11425;SDS011;5769;47.998;7.788;2023-07-29T06:41:40;326.45;;;55.88;;
11425;SDS011;5769;47.998;7.788;2023-07-29T06:44:07;325.98;;;56.38;;
11425;SDS011;5769;47.998;7.788;2023-07-29T06:46:34;326.00;;;55.38;;
11425;SDS011;5769;47.998;7.788;2023-07-29T06:49:02;326.17;;;56.33;;
11425;SDS011;5769;47.998;7.788;2023-07-29T06:51:28;324.85;;;56.40;;
11425;SDS011;5769;47.998;7.788;2023-07-29T06:53:57;326.10;;;55.95;;
11425;SDS011;5769;47.998;7.788;2023-07-29T06:56:24;325.48;;;55.80;;
11425;SDS011;5769;47.998;7.788;2023-07-29T06:58:50;325.33;;;56.72;;
11425;SDS011;5769;47.998;7.788;2023-07-29T07:01:17;326.70;;;55.83;;
11425;SDS011;5769;47.998;7.788;2023-07-29T07:03:44;328.45;;;56.55;;
11425;SDS011;5769;47.998;7.788;2023-07-29T07:06:12;327.98;;;56.92;;
11425;SDS011;5769;47.998;7.788;2023-07-29T07:08:39;327.20;;;56.40;;
11425;SDS011;5769;47.998;7.788;2023-07-29T07:11:06;326.25;;;55.67;;
11425;SDS011;5769;47.998;7.788;2023-07-29T07:13:33;326.33;;;55.88;;
11425;SDS011;5769;47.998;7.788;2023-07-29T07:16:00;324.55;;;55.90;;
11425;SDS011;5769;47.998;7.788;2023-07-29T07:18:32;327.63;;;55.78;;
11425;SDS011;5769;47.998;7.788;2023-07-29T07:20:59;325.50;;;56.25;;
11425;SDS011;5769;47.998;7.788;2023-07-29T07:23:29;327.10;;;56.63;;
11425;SDS011;5769;47.998;7.788;2023-07-29T07:25:57;325.17;;;55.63;;
11425;SDS011;5769;47.998;7.788;2023-07-29T07:28:25;325.20;;;55.08;;
11425;SDS011;5769;47.998;7.788;2023-07-29T07:30:52;328.85;;;57.72;;
11425;SDS011;5769;47.998;7.788;2023-07-29T07:33:20;326.33;;;55.92;;
11425;SDS011;5769;47.998;7.788;2023-07-29T07:35:49;327.10;;;55.92;;
11425;SDS011;5769;47.998;7.788;2023-07-29T07:38:16;325.08;;;56.50;;
11425;SDS011;5769;47.998;7.788;2023-07-29T07:40:53;325.73;;;55.90;;
11425;SDS011;5769;47.998;7.788;2023-07-29T07:43:25;327.83;;;56.08;;
11425;SDS011;5769;47.998;7.788;2023-07-29T07:45:57;326.50;;;55.75;;
11425;SDS011;5769;47.998;7.788;2023-07-29T07:48:24;328.90;;;56.17;;
11425;SDS011;5769;47.998;7.788;2023-07-29T07:50:53;326.10;;;55.50;;
11425;SDS011;5769;47.998;7.788;2023-07-29T07:53:22;326.55;;;56.17;;
11425;SDS011;5769;47.998;7.788;2023-07-29T07:55:53;326.50;;;55.78;;
11425;SDS011;5769;47.998;7.788;2023-07-29T07:58:22;325.30;;;54.88;;
11425;SDS011;5769;47.998;7.788;2023-07-29T08:01:00;324.92;;;55.20;;
11425;SDS011;5769;47.998;7.788;2023-07-29T08:03:27;325.02;;;54.88;;
11425;SDS011;5769;47.998;7.788;2023-07-29T08:05:54;325.83;;;55.67;;
11425;SDS011;5769;47.998;7.788;2023-07-29T08:08:21;324.73;;;55.08;;
11425;SDS011;5769;47.998;7.788;2023-07-29T08:10:48;325.65;;;55.40;;
11425;SDS011;5769;47.998;7.788;2023-07-29T08:13:16;325.20;;;55.95;;
11425;SDS011;5769;47.998;7.788;2023-07-29T08:15:45;326.42;;;56.08;;
11425;SDS011;5769;47.998;7.788;2023-07-29T08:18:12;326.33;;;56.33;;
11425;SDS011;5769;47.998;7.788;2023-07-29T08:20:39;327.20;;;55.60;;
11425;SDS011;5769;47.998;7.788;2023-07-29T08:23:06;328.08;;;56.72;;
11425;SDS011;5769;47.998;7.788;2023-07-29T08:25:33;327.13;;;56.10;;
11425;SDS011;5769;47.998;7.788;2023-07-29T08:28:00;325.48;;;56.10;;
11425;SDS011;5769;47.998;7.788;2023-07-29T08:30:28;328.42;;;56.20;;
11425;SDS011;5769;47.998;7.788;2023-07-29T08:32:57;325.67;;;55.17;;
11425;SDS011;5769;47.998;7.788;2023-07-29T08:35:24;324.60;;;55.28;;
11425;SDS011;5769;47.998;7.788;2023-07-29T08:37:51;325.88;;;56.15;;
11425;SDS011;5769;47.998;7.788;2023-07-29T08:40:17;326.08;;;55.08;;
11425;SDS011;5769;47.998;7.788;2023-07-29T08:42:52;325.05;;;55.72;;
11425;SDS011;5769;47.998;7.788;2023-07-29T08:45:20;326.60;;;55.72;;
11425;SDS011;5769;47.998;7.788;2023-07-29T08:47:50;326.88;;;56.30;;
11425;SDS011;5769;47.998;7.788;2023-07-29T08:50:23;325.92;;;55.40;;
11425;SDS011;5769;47.998;7.788;2023-07-29T08:52:53;326.38;;;55.25;;
11425;SDS011;5769;47.998;7.788;2023-07-29T08:55:23;325.83;;;55.92;;
11425;SDS011;5769;47.998;7.788;2023-07-29T08:57:52;327.23;;;56.00;;
11425;SDS011;5769;47.998;7.788;2023-07-29T09:00:22;325.60;;;55.17;;
11425;SDS011;5769;47.998;7.788;2023-07-29T09:02:51;325.13;;;55.60;;
11425;SDS011;5769;47.998;7.788;2023-07-29T09:05:27;324.10;;;55.00;;
11425;SDS011;5769;47.998;7.788;2023-07-29T09:07:56;323.90;;;55.40;;
11425;SDS011;5769;47.998;7.788;2023-07-29T09:10:25;325.70;;;56.05;;
11425;SDS011;5769;47.998;7.788;2023-07-29T09:12:55;327.20;;;55.63;;
11425;SDS011;5769;47.998;7.788;2023-07-29T09:15:26;324.70;;;54.65;;
11425;SDS011;5769;47.998;7.788;2023-07-29T09:17:58;325.35;;;54.63;;
11425;SDS011;5769;47.998;7.788;2023-07-29T09:20:34;325.00;;;54.78;;
11425;SDS011;5769;47.998;7.788;2023-07-29T09:23:06;325.20;;;55.40;;
11425;SDS011;5769;47.998;7.788;2023-07-29T09:25:36;325.17;;;55.65;;
11425;SDS011;5769;47.998;7.788;2023-07-29T09:28:10;325.10;;;55.47;;
11425;SDS011;5769;47.998;7.788;2023-07-29T09:30:41;324.98;;;55.80;;
11425;SDS011;5769;47.998;7.788;2023-07-29T09:33:17;325.17;;;54.97;;
11425;SDS011;5769;47.998;7.788;2023-07-29T09:35:48;325.80;;;55.30;;
11425;SDS011;5769;47.998;7.788;2023-07-29T09:38:25;327.27;;;55.58;;
11425;SDS011;5769;47.998;7.788;2023-07-29T09:40:55;327.55;;;56.05;;
11425;SDS011;5769;47.998;7.788;2023-07-29T09:43:36;325.58;;;54.88;;
11425;SDS011;5769;47.998;7.788;2023-07-29T09:46:06;325.58;;;56.20;;
11425;SDS011;5769;47.998;7.788;2023-07-29T09:48:36;327.02;;;55.58;;
11425;SDS011;5769;47.998;7.788;2023-07-29T09:51:09;325.00;;;55.67;;
11425;SDS011;5769;47.998;7.788;2023-07-29T09:53:39;325.92;;;55.50;;
11425;SDS011;5769;47.998;7.788;2023-07-29T09:56:10;324.92;;;54.47;;
11425;SDS011;5769;47.998;7.788;2023-07-29T09:58:37;325.52;;;54.72;;
11425;SDS011;5769;47.998;7.788;2023-07-29T10:01:08;324.75;;;55.20;;
11425;SDS011;5769;47.998;7.788;2023-07-29T10:03:38;324.15;;;55.10;;
11425;SDS011;5769;47.998;7.788;2023-07-29T10:06:05;325.83;;;55.67;;
11425;SDS011;5769;47.998;7.788;2023-07-29T10:08:33;324.70;;;55.08;;
11425;SDS011;5769;47.998;7.788;2023-07-29T10:11:03;324.98;;;55.42;;
11425;SDS011;5769;47.998;7.788;2023-07-29T10:13:34;324.65;;;54.78;;
11425;SDS011;5769;47.998;7.788;2023-07-29T10:16:02;325.67;;;55.50;;
11425;SDS011;5769;47.998;7.788;2023-07-29T10:18:30;325.42;;;54.80;;
11425;SDS011;5769;47.998;7.788;2023-07-29T10:21:02;325.50;;;55.22;;
11425;SDS011;5769;47.998;7.788;2023-07-29T10:23:32;324.95;;;54.88;;
11425;SDS011;5769;47.998;7.788;2023-07-29T10:26:02;325.02;;;55.25;;
11425;SDS011;5769;47.998;7.788;2023-07-29T10:28:33;323.63;;;54.55;;
11425;SDS011;5769;47.998;7.788;2023-07-29T10:31:05;324.75;;;55.35;;
11425;SDS011;5769;47.998;7.788;2023-07-29T10:33:34;325.77;;;55.55;;
11425;SDS011;5769;47.998;7.788;2023-07-29T10:36:03;324.55;;;55.35;;
11425;SDS011;5769;47.998;7.788;2023-07-29T10:38:35;326.00;;;54.70;;
11425;SDS011;5769;47.998;7.788;2023-07-29T10:41:05;323.63;;;54.95;;
11425;SDS011;5769;47.998;7.788;2023-07-29T10:43:33;325.13;;;55.00;;
11425;SDS011;5769;47.998;7.788;2023-07-29T10:46:14;324.55;;;55.00;;
11425;SDS011;5769;47.998;7.788;2023-07-29T10:48:43;325.30;;;55.22;;
11425;SDS011;5769;47.998;7.788;2023-07-29T10:51:26;325.33;;;55.20;;
11425;SDS011;5769;47.998;7.788;2023-07-29T10:53:58;324.73;;;54.90;;
11425;SDS011;5769;47.998;7.788;2023-07-29T10:56:26;324.90;;;55.30;;
11425;SDS011;5769;47.998;7.788;2023-07-29T10:58:54;327.27;;;56.13;;
11425;SDS011;5769;47.998;7.788;2023-07-29T11:01:26;328.00;;;55.88;;
11425;SDS011;5769;47.998;7.788;2023-07-29T11:09:58;326.10;;;55.50;;
11425;SDS011;5769;47.998;7.788;2023-07-29T11:12:39;325.33;;;55.40;;
11425;SDS011;5769;47.998;7.788;2023-07-29T11:15:12;324.13;;;54.72;;
11425;SDS011;5769;47.998;7.788;2023-07-29T11:17:40;326.80;;;55.58;;
11425;SDS011;5769;47.998;7.788;2023-07-29T11:20:09;326.00;;;55.38;;
11425;SDS011;5769;47.998;7.788;2023-07-29T11:22:38;327.80;;;55.63;;
11425;SDS011;5769;47.998;7.788;2023-07-29T11:25:05;325.50;;;55.20;;
11425;SDS011;5769;47.998;7.788;2023-07-29T11:27:34;327.88;;;54.88;;
11425;SDS011;5769;47.998;7.788;2023-07-29T11:30:01;328.15;;;55.47;;
11425;SDS011;5769;47.998;7.788;2023-07-29T11:32:31;326.23;;;55.17;;
11425;SDS011;5769;47.998;7.788;2023-07-29T11:35:01;326.88;;;55.47;;
11425;SDS011;5769;47.998;7.788;2023-07-29T11:37:28;326.20;;;55.85;;
11425;SDS011;5769;47.998;7.788;2023-07-29T11:39:56;325.65;;;55.38;;
11425;SDS011;5769;47.998;7.788;2023-07-29T11:42:24;327.48;;;55.10;;
11425;SDS011;5769;47.998;7.788;2023-07-29T11:44:52;325.23;;;55.35;;
11425;SDS011;5769;47.998;7.788;2023-07-29T11:47:18;325.17;;;55.60;;
11425;SDS011;5769;47.998;7.788;2023-07-29T11:49:45;326.33;;;55.03;;
11425;SDS011;5769;47.998;7.788;2023-07-29T11:52:12;326.83;;;55.17;;
11425;SDS011;5769;47.998;7.788;2023-07-29T11:54:39;323.83;;;55.60;;
11425;SDS011;5769;47.998;7.788;2023-07-29T11:57:07;326.33;;;55.75;;
11425;SDS011;5769;47.998;7.788;2023-07-29T11:59:35;327.25;;;55.42;;
11425;SDS011;5769;47.998;7.788;2023-07-29T12:02:05;325.67;;;55.35;;
11425;SDS011;5769;47.998;7.788;2023-07-29T12:04:34;324.88;;;55.88;;
11425;SDS011;5769;47.998;7.788;2023-07-29T12:07:02;325.48;;;55.80;;
11425;SDS011;5769;47.998;7.788;2023-07-29T12:09:29;325.77;;;56.80;;
11425;SDS011;5769;47.998;7.788;2023-07-29T12:11:56;325.42;;;56.67;;
11425;SDS011;5769;47.998;7.788;2023-07-29T12:14:26;324.58;;;56.92;;
11425;SDS011;5769;47.998;7.788;2023-07-29T12:16:54;326.13;;;56.58;;
11425;SDS011;5769;47.998;7.788;2023-07-29T12:19:21;326.20;;;55.63;;
11425;SDS011;5769;47.998;7.788;2023-07-29T12:21:50;326.80;;;56.72;;
11425;SDS011;5769;47.998;7.788;2023-07-29T12:24:17;327.60;;;56.28;;
11425;SDS011;5769;47.998;7.788;2023-07-29T12:26:43;327.90;;;56.10;;
11425;SDS011;5769;47.998;7.788;2023-07-29T12:29:11;324.90;;;55.90;;
11425;SDS011;5769;47.998;7.788;2023-07-29T12:31:40;325.38;;;55.53;;
11425;SDS011;5769;47.998;7.788;2023-07-29T12:34:07;324.85;;;55.88;;
11425;SDS011;5769;47.998;7.788;2023-07-29T12:36:41;327.73;;;56.35;;
11425;SDS011;5769;47.998;7.788;2023-07-29T12:39:15;326.15;;;55.75;;
11425;SDS011;5769;47.998;7.788;2023-07-29T12:41:42;326.77;;;56.20;;
11425;SDS011;5769;47.998;7.788;2023-07-29T12:44:09;326.33;;;56.97;;
11425;SDS011;5769;47.998;7.788;2023-07-29T12:46:36;328.30;;;56.72;;
11425;SDS011;5769;47.998;7.788;2023-07-29T12:49:05;326.00;;;56.30;;
11425;SDS011;5769;47.998;7.788;2023-07-29T12:51:32;327.50;;;55.80;;
11425;SDS011;5769;47.998;7.788;2023-07-29T12:53:59;325.55;;;55.72;;
11425;SDS011;5769;47.998;7.788;2023-07-29T12:56:27;326.60;;;56.20;;
11425;SDS011;5769;47.998;7.788;2023-07-29T12:58:54;327.95;;;57.05;;
11425;SDS011;5769;47.998;7.788;2023-07-29T13:01:21;325.10;;;56.20;;
11425;SDS011;5769;47.998;7.788;2023-07-29T13:03:48;325.42;;;56.83;;
11425;SDS011;5769;47.998;7.788;2023-07-29T13:06:16;324.85;;;55.40;;
11425;SDS011;5769;47.998;7.788;2023-07-29T13:08:43;327.02;;;57.40;;
11425;SDS011;5769;47.998;7.788;2023-07-29T13:11:11;325.65;;;56.53;;
11425;SDS011;5769;47.998;7.788;2023-07-29T13:13:37;325.48;;;56.08;;
11425;SDS011;5769;47.998;7.788;2023-07-29T13:16:04;324.77;;;56.08;;
11425;SDS011;5769;47.998;7.788;2023-07-29T13:18:32;325.17;;;56.33;;
11425;SDS011;5769;47.998;7.788;2023-07-29T13:20:59;325.70;;;56.03;;
11425;SDS011;5769;47.998;7.788;2023-07-29T13:23:27;326.55;;;56.08;;
11425;SDS011;5769;47.998;7.788;2023-07-29T13:25:55;327.58;;;56.67;;
11425;SDS011;5769;47.998;7.788;2023-07-29T13:28:21;326.27;;;55.65;;
11425;SDS011;5769;47.998;7.788;2023-07-29T13:30:48;325.77;;;57.03;;
11425;SDS011;5769;47.998;7.788;2023-07-29T13:33:15;326.00;;;56.60;;
11425;SDS011;5769;47.998;7.788;2023-07-29T13:35:42;326.63;;;55.88;;
11425;SDS011;5769;47.998;7.788;2023-07-29T13:38:09;326.15;;;56.60;;
11425;SDS011;5769;47.998;7.788;2023-07-29T13:40:37;326.95;;;55.97;;
11425;SDS011;5769;47.998;7.788;2023-07-29T13:43:04;325.23;;;56.30;;
11425;SDS011;5769;47.998;7.788;2023-07-29T13:45:31;325.90;;;56.00;;
11425;SDS011;5769;47.998;7.788;2023-07-29T13:47:57;325.15;;;56.17;;
11425;SDS011;5769;47.998;7.788;2023-07-29T13:50:24;326.48;;;56.63;;
11425;SDS011;5769;47.998;7.788;2023-07-29T13:52:54;326.38;;;56.78;;
11425;SDS011;5769;47.998;7.788;2023-07-29T13:55:20;326.30;;;56.78;;
11425;SDS011;5769;47.998;7.788;2023-07-29T13:57:49;326.52;;;56.67;;
11425;SDS011;5769;47.998;7.788;2023-07-29T14:00:15;326.92;;;56.40;;
11425;SDS011;5769;47.998;7.788;2023-07-29T14:02:42;325.30;;;56.53;;
11425;SDS011;5769;47.998;7.788;2023-07-29T14:05:09;326.17;;;56.63;;
11425;SDS011;5769;47.998;7.788;2023-07-29T14:07:36;325.40;;;55.80;;
11425;SDS011;5769;47.998;7.788;2023-07-29T14:10:03;326.40;;;56.15;;
11425;SDS011;5769;47.998;7.788;2023-07-29T14:12:30;326.73;;;56.22;;
11425;SDS011;5769;47.998;7.788;2023-07-29T14:14:59;326.63;;;57.00;;
11425;SDS011;5769;47.998;7.788;2023-07-29T14:17:25;327.42;;;57.15;;
11425;SDS011;5769;47.998;7.788;2023-07-29T14:20:01;327.55;;;57.20;;
11425;SDS011;5769;47.998;7.788;2023-07-29T14:22:30;326.73;;;56.63;;
11425;SDS011;5769;47.998;7.788;2023-07-29T14:24:59;325.10;;;56.58;;
11425;SDS011;5769;47.998;7.788;2023-07-29T14:27:26;325.15;;;56.45;;
11425;SDS011;5769;47.998;7.788;2023-07-29T14:29:53;325.27;;;56.03;;
11425;SDS011;5769;47.998;7.788;2023-07-29T14:32:21;325.50;;;55.78;;